createdAt,value
2019-02-18T00:04:13.709Z,-0.20
2019-02-18T00:09:06.456Z,-0.30
2019-02-18T00:13:58.951Z,-0.30
2019-02-18T00:18:51.485Z,-0.30
2019-02-18T00:23:44.279Z,-0.30
2019-02-18T00:28:37.068Z,-0.30
2019-02-18T00:33:29.912Z,-0.30
2019-02-18T00:38:22.401Z,-0.40
2019-02-18T00:43:14.671Z,-0.40
2019-02-18T00:48:07.313Z,-0.40
2019-02-18T00:52:59.951Z,-0.40
2019-02-18T00:57:52.684Z,-0.50
2019-02-18T01:02:45.118Z,-0.50
2019-02-18T01:07:37.764Z,-0.60
2019-02-18T01:12:30.181Z,-0.70
2019-02-18T01:17:22.563Z,-0.70
2019-02-18T01:22:14.932Z,-0.80
2019-02-18T01:27:07.400Z,-0.80
2019-02-18T01:32:00.083Z,-0.90
2019-02-18T01:36:52.766Z,-0.90
2019-02-18T01:41:45.477Z,-0.80
2019-02-18T01:46:37.912Z,-0.90
2019-02-18T01:51:30.497Z,-1.00
2019-02-18T01:56:22.829Z,-1.00
2019-02-18T02:01:15.373Z,-1.00
2019-02-18T02:06:08.018Z,-1.00
2019-02-18T02:11:00.692Z,-1.00
2019-02-18T02:15:53.400Z,-1.20
2019-02-18T02:20:46.093Z,-1.20
2019-02-18T02:25:38.973Z,-1.30
2019-02-18T02:30:31.692Z,-1.40
2019-02-18T02:35:23.967Z,-1.40
2019-02-18T02:40:16.370Z,-1.40
2019-02-18T02:45:09.340Z,-1.40
2019-02-18T02:50:01.649Z,-1.30
2019-02-18T02:54:54.171Z,-1.40
2019-02-18T02:59:46.958Z,-1.50
2019-02-18T03:04:39.574Z,-1.50
2019-02-18T03:09:32.254Z,-1.50
2019-02-18T03:14:24.520Z,-1.60
2019-02-18T03:19:17.398Z,-1.60
2019-02-18T03:24:09.836Z,-1.70
2019-02-18T03:29:17.324Z,-1.70
2019-02-18T03:34:12.681Z,-1.80
2019-02-18T03:39:06.549Z,-1.80
2019-02-18T03:43:58.555Z,-1.80
2019-02-18T03:48:50.820Z,-1.80
2019-02-18T03:53:42.901Z,-1.80
2019-02-18T03:58:35.803Z,-1.80
2019-02-18T04:03:28.365Z,-1.90
2019-02-18T04:08:20.844Z,-2.00
2019-02-18T04:13:13.438Z,-2.00
2019-02-18T04:18:06.005Z,-2.10
2019-02-18T04:22:58.685Z,-2.10
2019-02-18T04:27:51.429Z,-2.10
2019-02-18T04:32:43.938Z,-2.00
2019-02-18T04:37:36.380Z,-1.90
2019-02-18T04:42:28.680Z,-1.90
2019-02-18T04:47:21.192Z,-1.90
2019-02-18T04:52:13.691Z,-2.00
2019-02-18T04:57:06.385Z,-1.90
2019-02-18T05:01:58.981Z,-2.00
2019-02-18T05:06:51.638Z,-2.10
2019-02-18T05:11:44.247Z,-2.10
2019-02-18T05:16:36.718Z,-2.10
2019-02-18T05:21:29.357Z,-2.20
2019-02-18T05:26:21.941Z,-2.20
2019-02-18T05:31:14.717Z,-2.20
2019-02-18T05:36:07.182Z,-2.20
2019-02-18T05:41:00.119Z,-2.20
2019-02-18T05:45:53.154Z,-2.20
2019-02-18T05:50:45.757Z,-2.20
2019-02-18T05:55:38.413Z,-2.20
2019-02-18T06:00:30.758Z,-2.30
2019-02-18T06:05:23.124Z,-2.30
2019-02-18T06:10:17.127Z,-2.20
2019-02-18T06:15:10.541Z,-2.20
2019-02-18T06:20:03.357Z,-2.20
2019-02-18T06:25:15.426Z,-2.20
2019-02-18T06:30:10.428Z,-2.30
2019-02-18T06:35:02.865Z,-2.30
2019-02-18T06:39:55.329Z,-2.30
2019-02-18T06:44:49.526Z,-2.30
2019-02-18T06:49:41.740Z,-2.30
2019-02-18T06:54:34.194Z,-2.30
2019-02-18T06:59:28.590Z,-2.30
2019-02-18T07:04:28.460Z,-2.20
2019-02-18T07:09:24.951Z,-1.70
2019-02-18T07:14:17.780Z,0.20
2019-02-18T07:19:10.182Z,1.80
2019-02-18T07:24:02.968Z,3.20
2019-02-18T07:28:55.504Z,4.30
2019-02-18T07:33:47.964Z,5.50
2019-02-18T07:38:40.601Z,6.40
2019-02-18T07:43:32.837Z,7.50
2019-02-18T07:48:25.256Z,8.00
2019-02-18T07:53:18.069Z,8.90
2019-02-18T07:58:10.401Z,9.60
2019-02-18T08:03:02.806Z,10.00
2019-02-18T08:07:55.413Z,10.60
2019-02-18T08:12:47.687Z,11.40
2019-02-18T08:17:40.216Z,11.90
2019-02-18T08:22:32.609Z,12.30
2019-02-18T08:27:25.461Z,13.10
2019-02-18T08:32:18.069Z,13.80
2019-02-18T08:37:10.544Z,14.20
2019-02-18T08:42:03.345Z,14.20
2019-02-18T08:46:55.659Z,14.60
2019-02-18T08:51:48.006Z,15.40
2019-02-18T08:56:40.551Z,15.80
2019-02-18T09:01:33.309Z,16.20
2019-02-18T09:06:26.022Z,16.70
2019-02-18T09:11:18.314Z,17.10
2019-02-18T09:16:10.776Z,17.70
2019-02-18T09:21:03.298Z,18.70
2019-02-18T09:25:55.841Z,20.10
2019-02-18T09:30:49.952Z,20.90
2019-02-18T09:35:42.557Z,21.70
2019-02-18T09:40:44.198Z,22.80
2019-02-18T09:45:29.289Z,23.80
2019-02-18T09:50:21.790Z,24.00
2019-02-18T09:55:14.464Z,24.40
2019-02-18T10:00:11.924Z,24.10
2019-02-18T10:05:04.710Z,24.10
2019-02-18T10:09:57.370Z,24.70
2019-02-18T10:14:50.174Z,25.30
2019-02-18T10:19:43.167Z,25.80
2019-02-18T10:24:35.750Z,25.60
2019-02-18T10:29:28.057Z,26.50
2019-02-18T10:34:20.489Z,26.90
2019-02-18T10:39:13.050Z,28.00
2019-02-18T10:44:05.526Z,28.20
2019-02-18T10:48:58.024Z,28.80
2019-02-18T10:53:50.570Z,28.70
2019-02-18T10:58:43.529Z,29.50
2019-02-18T11:03:36.040Z,29.50
2019-02-18T11:08:28.384Z,28.40
2019-02-18T11:13:20.825Z,26.80
2019-02-18T11:18:13.641Z,25.70
2019-02-18T11:23:06.174Z,25.60
2019-02-18T11:27:58.853Z,25.90
2019-02-18T11:32:51.505Z,26.20
2019-02-18T11:37:44.027Z,25.70
2019-02-18T11:42:37.470Z,25.90
2019-02-18T11:47:29.882Z,26.70
2019-02-18T11:52:22.365Z,27.10
2019-02-18T11:57:15.041Z,25.10
2019-02-18T12:02:07.392Z,22.90
2019-02-18T12:07:00.503Z,23.00
2019-02-18T12:11:52.968Z,24.60
2019-02-18T12:16:45.597Z,25.60
2019-02-18T12:21:37.769Z,26.50
2019-02-18T12:26:30.408Z,27.10
2019-02-18T12:31:23.018Z,27.60
2019-02-18T12:36:15.578Z,26.50
2019-02-18T12:41:08.246Z,24.20
2019-02-18T12:46:00.661Z,22.60
2019-02-18T12:50:53.081Z,21.80
2019-02-18T12:55:45.421Z,20.40
2019-02-18T13:00:37.910Z,19.10
2019-02-18T13:05:30.713Z,18.70
2019-02-18T13:10:23.255Z,19.70
2019-02-18T13:15:17.497Z,19.80
2019-02-18T13:20:09.857Z,18.70
2019-02-18T13:25:02.328Z,17.70
2019-02-18T13:29:54.688Z,17.50
2019-02-18T13:34:47.737Z,17.30
2019-02-18T13:39:40.205Z,17.50
2019-02-18T13:44:32.484Z,18.20
2019-02-18T13:49:24.956Z,19.10
2019-02-18T13:54:17.624Z,19.40
2019-02-18T13:59:10.512Z,18.10
2019-02-18T14:04:03.225Z,16.70
2019-02-18T14:08:55.797Z,15.90
2019-02-18T14:13:48.658Z,15.50
2019-02-18T14:18:41.525Z,15.30
2019-02-18T14:23:34.036Z,15.00
2019-02-18T14:28:26.648Z,14.80
2019-02-18T14:33:19.926Z,14.70
2019-02-18T14:38:12.473Z,14.50
2019-02-18T14:43:05.169Z,14.30
2019-02-18T14:47:57.617Z,14.00
2019-02-18T14:52:51.293Z,13.90
2019-02-18T14:57:43.840Z,13.70
2019-02-18T15:02:36.434Z,13.60
2019-02-18T15:07:28.709Z,13.70
2019-02-18T15:12:22.376Z,13.80
2019-02-18T15:17:15.036Z,13.80
2019-02-18T15:22:07.516Z,13.60
2019-02-18T15:27:00.232Z,13.50
2019-02-18T15:31:55.937Z,13.40
2019-02-18T15:36:48.536Z,13.30
2019-02-18T15:41:41.141Z,13.20
2019-02-18T15:46:33.919Z,13.10
2019-02-18T15:51:26.642Z,13.00
2019-02-18T15:56:19.530Z,12.90
2019-02-18T16:01:11.945Z,12.70
2019-02-18T16:06:04.746Z,12.60
2019-02-18T16:10:58.048Z,12.40
2019-02-18T16:15:50.542Z,12.30
2019-02-18T16:20:42.930Z,12.20
2019-02-18T16:25:35.485Z,12.00
2019-02-18T16:30:28.466Z,12.00
2019-02-18T16:35:21.276Z,11.80
2019-02-18T16:40:16.248Z,11.50
2019-02-18T16:45:11.763Z,11.20
2019-02-18T16:50:05.798Z,11.00
2019-02-18T16:54:58.340Z,10.70
2019-02-18T16:59:51.060Z,10.40
2019-02-18T17:04:43.792Z,10.10
2019-02-18T17:09:36.464Z,9.80
2019-02-18T17:14:29.017Z,9.50
2019-02-18T17:19:21.405Z,9.30
2019-02-18T17:24:13.892Z,9.10
2019-02-18T17:29:06.437Z,9.00
2019-02-18T17:33:59.333Z,8.90
2019-02-18T17:38:51.881Z,8.70
2019-02-18T17:43:44.244Z,8.50
2019-02-18T17:48:38.132Z,8.40
2019-02-18T17:53:30.695Z,8.10
2019-02-18T17:58:23.188Z,7.80
2019-02-18T18:03:15.977Z,7.50
2019-02-18T18:08:09.001Z,7.20
2019-02-18T18:13:01.365Z,7.00
2019-02-18T18:17:53.930Z,6.80
2019-02-18T18:22:46.486Z,6.60
2019-02-18T18:27:39.389Z,6.40
2019-02-18T18:32:32.041Z,6.10
2019-02-18T18:37:24.634Z,5.90
2019-02-18T18:42:16.957Z,5.70
2019-02-18T18:47:09.701Z,5.40
2019-02-18T18:52:02.173Z,5.20
2019-02-18T18:56:55.016Z,5.10
2019-02-18T19:01:48.385Z,5.10
2019-02-18T19:06:41.164Z,5.00
2019-02-18T19:11:33.250Z,4.90
2019-02-18T19:16:25.629Z,4.80
2019-02-18T19:21:18.222Z,4.70
2019-02-18T19:26:10.481Z,4.70
2019-02-18T19:31:03.002Z,4.50
2019-02-18T19:35:55.688Z,4.20
2019-02-18T19:40:48.431Z,4.00
2019-02-18T19:45:40.790Z,4.00
2019-02-18T19:50:33.314Z,3.90
2019-02-18T19:55:26.067Z,3.80
2019-02-18T20:00:19.930Z,3.60
2019-02-18T20:05:12.468Z,3.60
2019-02-18T20:10:07.661Z,3.50
2019-02-18T20:15:00.309Z,3.50
2019-02-18T20:19:54.413Z,3.40
2019-02-18T20:24:47.033Z,3.30
2019-02-18T20:29:48.514Z,3.20
2019-02-18T20:34:41.131Z,3.00
2019-02-18T20:39:33.503Z,3.00
2019-02-18T20:44:25.877Z,2.90
2019-02-18T20:49:18.583Z,2.80
2019-02-18T20:54:11.489Z,2.80
2019-02-18T20:59:04.089Z,2.80
2019-02-18T21:03:56.430Z,2.70
2019-02-18T21:08:48.893Z,2.60
2019-02-18T21:13:42.006Z,2.50
2019-02-18T21:18:34.466Z,2.40
2019-02-18T21:23:26.648Z,2.20
2019-02-18T21:28:19.137Z,2.20
2019-02-18T21:33:12.221Z,2.10
2019-02-18T21:38:04.794Z,2.10
2019-02-18T21:42:58.333Z,2.10
2019-02-18T21:47:50.988Z,2.00
2019-02-18T21:52:43.609Z,1.90
2019-02-18T21:57:36.076Z,1.90
2019-02-18T22:02:28.837Z,1.80
2019-02-18T22:07:21.502Z,1.80
2019-02-18T22:12:14.376Z,1.70
2019-02-18T22:17:06.757Z,1.60
2019-02-18T22:21:59.125Z,1.60
2019-02-18T22:26:51.747Z,1.50
2019-02-18T22:31:44.465Z,1.50
2019-02-18T22:36:37.026Z,1.40
2019-02-18T22:41:29.608Z,1.40
2019-02-18T22:46:22.194Z,1.40
2019-02-18T22:51:14.946Z,1.40
2019-02-18T22:56:07.698Z,1.30
2019-02-18T23:01:01.005Z,1.20
2019-02-18T23:05:53.684Z,1.10
2019-02-18T23:10:45.969Z,1.20
2019-02-18T23:15:38.857Z,1.20
2019-02-18T23:20:31.581Z,1.10
2019-02-18T23:25:24.376Z,1.10
2019-02-18T23:30:17.117Z,1.10
2019-02-18T23:35:09.863Z,1.10
2019-02-18T23:40:02.173Z,1.10
2019-02-18T23:44:59.361Z,1.10
2019-02-18T23:49:48.612Z,1.00
2019-02-18T23:54:41.341Z,1.00
2019-02-18T23:59:33.853Z,1.00
